createdAt,value
2023-04-15T00:00:31.029Z,99382.63
2023-04-15T00:03:34.677Z,99378.28
2023-04-15T00:06:37.534Z,99376.78
2023-04-15T00:09:40.222Z,99380.25
2023-04-15T00:12:42.893Z,99382.97
2023-04-15T00:15:45.489Z,99387.03
2023-04-15T00:18:48.040Z,99379.66
2023-04-15T00:21:50.607Z,99386.88
2023-04-15T00:24:53.438Z,99379.16
2023-04-15T00:27:57.148Z,99389.66
2023-04-15T00:30:59.588Z,99382.13
2023-04-15T00:34:02.612Z,99384.00
2023-04-15T00:37:04.970Z,99372.47
2023-04-15T00:40:12.345Z,99380.69
2023-04-15T00:43:14.660Z,99379.97
2023-04-15T00:46:17.741Z,99378.31
2023-04-15T00:49:20.326Z,99375.22
2023-04-15T00:52:22.829Z,99370.31
2023-04-15T00:55:26.772Z,99370.13
2023-04-15T00:58:29.357Z,99377.38
2023-04-15T01:01:31.855Z,99373.88
2023-04-15T01:04:34.605Z,99371.03
2023-04-15T01:07:37.009Z,99373.16
2023-04-15T01:10:39.598Z,99369.94
2023-04-15T01:13:42.515Z,99357.00
2023-04-15T01:16:45.756Z,99357.84
2023-04-15T01:19:48.752Z,99354.00
2023-04-15T01:22:51.471Z,99349.22
2023-04-15T01:25:54.407Z,99356.81
2023-04-15T01:28:57.804Z,99353.34
2023-04-15T01:32:00.277Z,99353.69
2023-04-15T01:35:03.014Z,99362.91
2023-04-15T01:38:06.471Z,99366.69
2023-04-15T01:41:09.117Z,99368.69
2023-04-15T01:44:11.836Z,99359.78
2023-04-15T01:47:15.674Z,99372.84
2023-04-15T01:50:18.099Z,99370.44
2023-04-15T01:53:21.423Z,99369.00
2023-04-15T01:56:26.888Z,99369.81
2023-04-15T01:59:31.379Z,99361.94
2023-04-15T02:02:34.758Z,99368.63
2023-04-15T02:05:37.446Z,99369.94
2023-04-15T02:08:39.669Z,99370.19
2023-04-15T02:11:43.140Z,99372.78
2023-04-15T02:14:45.774Z,99369.47
2023-04-15T02:17:51.072Z,99368.63
2023-04-15T02:20:54.104Z,99370.97
2023-04-15T02:23:57.284Z,99372.78
2023-04-15T02:26:59.622Z,99371.81
2023-04-15T02:30:02.441Z,99367.72
2023-04-15T02:33:05.077Z,99369.47
2023-04-15T02:36:08.414Z,99372.28
2023-04-15T02:39:11.313Z,99381.31
2023-04-15T02:42:14.159Z,99378.88
2023-04-15T02:45:16.428Z,99385.59
2023-04-15T02:48:20.388Z,99382.69
2023-04-15T02:51:23.035Z,99382.69
2023-04-15T02:54:26.280Z,99387.69
2023-04-15T02:57:29.553Z,99389.47
2023-04-15T03:00:33.233Z,99379.09
2023-04-15T03:03:35.749Z,99374.81
2023-04-15T03:06:46.288Z,99372.81
2023-04-15T03:09:48.750Z,99375.78
2023-04-15T03:12:51.704Z,99369.25
2023-04-15T03:15:54.595Z,99369.75
2023-04-15T03:18:58.112Z,99372.53
2023-04-15T03:22:00.701Z,99366.50
2023-04-15T03:25:03.527Z,99362.50
2023-04-15T03:28:07.567Z,99365.31
2023-04-15T03:31:10.250Z,99371.75
2023-04-15T03:34:12.568Z,99362.41
2023-04-15T03:37:15.532Z,99368.78
2023-04-15T03:40:17.825Z,99373.56
2023-04-15T03:43:20.449Z,99374.72
2023-04-15T03:46:22.860Z,99382.28
2023-04-15T03:49:25.615Z,99378.34
2023-04-15T03:52:27.982Z,99379.50
2023-04-15T03:55:30.595Z,99372.28
2023-04-15T03:58:32.934Z,99372.78
2023-04-15T04:01:35.487Z,99373.41
2023-04-15T04:04:38.267Z,99372.25
2023-04-15T04:07:40.562Z,99368.94
2023-04-15T04:10:43.157Z,99367.13
2023-04-15T04:13:45.577Z,99358.41
2023-04-15T04:16:48.303Z,99359.56
2023-04-15T04:19:50.603Z,99368.09
2023-04-15T04:22:53.179Z,99368.63
2023-04-15T04:25:55.506Z,99362.56
2023-04-15T04:28:58.069Z,99365.75
2023-04-15T04:32:00.687Z,99358.69
2023-04-15T04:35:04.069Z,99370.38
2023-04-15T04:38:06.362Z,99369.06
2023-04-15T04:41:08.992Z,99367.06
2023-04-15T04:44:11.305Z,99369.06
2023-04-15T04:47:14.174Z,99366.75
2023-04-15T04:50:18.368Z,99369.37
2023-04-15T04:53:21.065Z,99371.69
2023-04-15T04:56:23.317Z,99362.63
2023-04-15T04:59:26.535Z,99369.19
2023-04-15T05:02:28.927Z,99376.22
2023-04-15T05:05:31.993Z,99376.28
2023-04-15T05:08:34.416Z,99369.16
2023-04-15T05:11:37.026Z,99377.13
2023-04-15T05:14:40.070Z,99390.41
2023-04-15T05:17:42.663Z,99382.84
2023-04-15T05:20:45.190Z,99375.00
2023-04-15T05:23:47.725Z,99369.22
2023-04-15T05:26:49.973Z,99377.66
2023-04-15T05:29:52.763Z,99378.34
2023-04-15T05:32:55.033Z,99382.78
2023-04-15T05:35:57.656Z,99379.75
2023-04-15T05:39:00.128Z,99377.56
2023-04-15T05:42:03.579Z,99381.00
2023-04-15T05:45:09.081Z,99384.63
2023-04-15T05:48:11.993Z,99384.91
2023-04-15T05:51:14.375Z,99386.09
2023-04-15T05:54:18.703Z,99392.56
2023-04-15T05:57:22.366Z,99391.87
2023-04-15T06:00:25.301Z,99396.81
2023-04-15T06:03:27.964Z,99398.31
2023-04-15T06:06:30.887Z,99400.94
2023-04-15T06:09:33.842Z,99406.44
2023-04-15T06:12:36.312Z,99407.53
2023-04-15T06:15:38.919Z,99409.25
2023-04-15T06:18:41.550Z,99407.88
2023-04-15T06:21:44.413Z,99406.44
2023-04-15T06:24:46.745Z,99420.97
2023-04-15T06:27:49.461Z,99425.59
2023-04-15T06:30:52.835Z,99421.41
2023-04-15T06:33:55.425Z,99430.37
2023-04-15T06:36:57.792Z,99435.13
2023-04-15T06:40:00.562Z,99430.59
2023-04-15T06:43:03.135Z,99437.09
2023-04-15T06:46:05.917Z,99437.37
2023-04-15T06:49:08.507Z,99434.34
2023-04-15T06:52:11.392Z,99442.81
2023-04-15T06:55:14.757Z,99445.06
2023-04-15T06:58:17.549Z,99440.88
2023-04-15T07:01:20.298Z,99432.78
2023-04-15T07:04:22.886Z,99436.75
2023-04-15T07:07:25.686Z,99446.03
2023-04-15T07:10:28.283Z,99438.78
2023-04-15T07:13:31.452Z,99442.22
2023-04-15T07:16:34.093Z,99439.72
2023-04-15T07:19:36.549Z,99441.09
2023-04-15T07:22:39.197Z,99441.94
2023-04-15T07:25:41.653Z,99440.94
2023-04-15T07:28:46.283Z,99443.88
2023-04-15T07:31:48.510Z,99444.59
2023-04-15T07:34:51.825Z,99440.69
2023-04-15T07:37:54.213Z,99444.91
2023-04-15T07:40:56.855Z,99456.09
2023-04-15T07:43:59.571Z,99455.94
2023-04-15T07:47:02.803Z,99456.94
2023-04-15T07:50:05.379Z,99462.09
2023-04-15T07:53:08.356Z,99459.00
2023-04-15T07:56:11.352Z,99456.28
2023-04-15T07:59:15.404Z,99443.13
2023-04-15T08:02:18.506Z,99452.66
2023-04-15T08:05:21.419Z,99445.03
2023-04-15T08:08:23.919Z,99442.31
2023-04-15T08:11:27.792Z,99441.97
2023-04-15T08:14:30.376Z,99451.19
2023-04-15T08:17:32.968Z,99453.41
2023-04-15T08:20:35.497Z,99449.09
2023-04-15T08:23:38.626Z,99441.34
2023-04-15T08:26:40.974Z,99454.59
2023-04-15T08:29:43.562Z,99460.31
2023-04-15T08:32:47.024Z,99457.72
2023-04-15T08:35:49.631Z,99460.06
2023-04-15T08:38:52.040Z,99465.75
2023-04-15T08:41:58.779Z,99464.97
2023-04-15T08:45:04.137Z,99468.88
2023-04-15T08:48:07.766Z,99470.47
2023-04-15T08:51:11.032Z,99466.56
2023-04-15T08:54:14.095Z,99472.12
2023-04-15T08:57:16.633Z,99471.47
2023-04-15T09:00:19.448Z,99474.03
2023-04-15T09:03:23.724Z,99474.16
2023-04-15T09:06:27.167Z,99486.81
2023-04-15T09:09:29.655Z,99473.69
2023-04-15T09:12:34.729Z,99479.03
2023-04-15T09:15:38.437Z,99474.50
2023-04-15T09:18:41.450Z,99484.84
2023-04-15T09:21:47.205Z,99478.94
2023-04-15T09:24:49.847Z,99474.09
2023-04-15T09:27:53.724Z,99479.47
2023-04-15T09:30:59.591Z,99477.97
2023-04-15T09:34:02.097Z,99478.84
2023-04-15T09:37:04.842Z,99476.19
2023-04-15T09:40:07.801Z,99475.19
2023-04-15T09:43:12.938Z,99466.06
2023-04-15T09:46:15.497Z,99465.19
2023-04-15T09:49:18.384Z,99470.88
2023-04-15T09:52:20.676Z,99474.97
2023-04-15T09:55:23.238Z,99473.25
2023-04-15T09:58:29.464Z,99476.00
2023-04-15T10:01:32.416Z,99474.25
2023-04-15T10:04:40.070Z,99480.59
2023-04-15T10:07:42.932Z,99477.03
2023-04-15T10:10:46.673Z,99488.69
2023-04-15T10:13:50.668Z,99480.84
2023-04-15T10:16:56.481Z,99492.34
2023-04-15T10:20:00.644Z,99488.59
2023-04-15T10:23:03.759Z,99486.12
2023-04-15T10:26:06.194Z,99494.41
2023-04-15T10:29:09.852Z,99496.66
2023-04-15T10:32:12.954Z,99491.78
2023-04-15T10:35:16.618Z,99492.00
2023-04-15T10:38:37.669Z,99498.31
2023-04-15T10:41:40.479Z,99494.19
2023-04-15T10:44:43.893Z,99497.75
2023-04-15T10:47:46.436Z,99499.97
2023-04-15T10:50:58.227Z,99497.31
2023-04-15T10:54:00.936Z,99503.03
2023-04-15T10:57:06.635Z,99503.47
2023-04-15T11:00:09.307Z,99508.94
2023-04-15T11:03:12.245Z,99512.72
2023-04-15T11:06:14.994Z,99509.72
2023-04-15T11:09:35.716Z,99519.19
2023-04-15T11:12:38.436Z,99516.09
2023-04-15T11:15:47.341Z,99516.16
2023-04-15T11:18:56.734Z,99520.16
2023-04-15T11:22:06.630Z,99517.62
2023-04-15T11:25:09.252Z,99515.94
2023-04-15T11:28:12.761Z,99522.59
2023-04-15T11:31:18.137Z,99519.22
2023-04-15T11:34:24.103Z,99512.81
2023-04-15T11:37:30.054Z,99523.56
2023-04-15T11:40:33.560Z,99516.09
2023-04-15T11:43:36.246Z,99526.97
2023-04-15T11:46:38.592Z,99531.47
2023-04-15T11:49:41.620Z,99526.97
2023-04-15T11:52:54.411Z,99535.44
2023-04-15T11:55:57.026Z,99530.50
2023-04-15T11:59:00.052Z,99537.28
2023-04-15T12:02:11.683Z,99521.47
2023-04-15T12:05:14.649Z,99523.34
2023-04-15T12:08:17.211Z,99523.59
2023-04-15T12:11:20.473Z,99530.03
2023-04-15T12:14:26.835Z,99531.47
2023-04-15T12:17:29.620Z,99528.09
2023-04-15T12:20:51.922Z,99529.44
2023-04-15T12:23:58.113Z,99529.44
2023-04-15T12:27:05.661Z,99534.88
2023-04-15T12:30:09.027Z,99530.34
2023-04-15T12:33:12.061Z,99537.41
2023-04-15T12:36:14.695Z,99538.09
2023-04-15T12:39:16.951Z,99537.50
2023-04-15T12:42:19.760Z,99537.66
2023-04-15T12:45:22.180Z,99533.34
2023-04-15T12:48:24.844Z,99537.38
2023-04-15T12:51:27.449Z,99542.81
2023-04-15T12:54:30.855Z,99534.69
2023-04-15T12:57:33.160Z,99542.69
2023-04-15T13:00:35.996Z,99552.09
2023-04-15T13:03:38.997Z,99556.91
2023-04-15T13:06:42.066Z,99553.59
2023-04-15T13:09:44.912Z,99553.16
2023-04-15T13:12:50.160Z,99551.28
2023-04-15T13:15:52.547Z,99560.72
2023-04-15T13:18:55.528Z,99551.34
2023-04-15T13:21:57.944Z,99556.53
2023-04-15T13:25:00.983Z,99558.34
2023-04-15T13:28:03.335Z,99556.41
2023-04-15T13:31:06.180Z,99558.81
2023-04-15T13:34:08.549Z,99558.31
2023-04-15T13:37:11.152Z,99559.59
2023-04-15T13:40:13.545Z,99562.31
2023-04-15T13:43:16.301Z,99571.06
2023-04-15T13:46:18.800Z,99557.50
2023-04-15T13:49:21.650Z,99565.19
2023-04-15T13:52:24.046Z,99571.69
2023-04-15T13:55:27.163Z,99575.41
2023-04-15T13:58:31.283Z,99573.53
2023-04-15T14:01:34.732Z,99576.81
2023-04-15T14:04:38.231Z,99579.19
2023-04-15T14:07:41.066Z,99576.94
2023-04-15T14:10:48.424Z,99578.72
2023-04-15T14:13:50.854Z,99575.00
2023-04-15T14:16:53.557Z,99581.44
2023-04-15T14:19:56.062Z,99586.34
2023-04-15T14:22:58.782Z,99594.81
2023-04-15T14:26:01.352Z,99590.06
2023-04-15T14:29:04.332Z,99593.19
2023-04-15T14:32:12.362Z,99592.13
2023-04-15T14:35:15.323Z,99592.75
2023-04-15T14:38:17.742Z,99591.19
2023-04-15T14:41:20.707Z,99603.00
2023-04-15T14:44:24.064Z,99599.88
2023-04-15T14:47:26.726Z,99598.78
2023-04-15T14:50:29.186Z,99603.34
2023-04-15T14:53:31.964Z,99611.31
2023-04-15T14:56:34.334Z,99611.69
2023-04-15T14:59:36.984Z,99614.22
2023-04-15T15:02:40.487Z,99615.19
2023-04-15T15:05:44.790Z,99602.28
2023-04-15T15:08:47.106Z,99607.59
2023-04-15T15:11:49.892Z,99609.56
2023-04-15T15:14:52.801Z,99608.41
2023-04-15T15:17:55.688Z,99609.16
2023-04-15T15:20:58.485Z,99614.34
2023-04-15T15:24:01.186Z,99620.56
2023-04-15T15:27:03.488Z,99623.72
2023-04-15T15:30:06.914Z,99622.94
2023-04-15T15:33:09.402Z,99628.00
2023-04-15T15:36:12.197Z,99634.44
2023-04-15T15:39:14.797Z,99638.19
2023-04-15T15:42:18.886Z,99646.06
2023-04-15T15:45:21.235Z,99648.50
2023-04-15T15:48:24.264Z,99655.31
2023-04-15T15:51:27.584Z,99655.12
2023-04-15T15:54:30.319Z,99661.94
2023-04-15T15:57:32.569Z,99668.63
2023-04-15T16:00:35.742Z,99669.28
2023-04-15T16:03:38.520Z,99671.38
2023-04-15T16:06:41.208Z,99677.78
2023-04-15T16:09:44.001Z,99687.59
2023-04-15T16:12:46.526Z,99682.81
2023-04-15T16:15:52.341Z,99680.13
2023-04-15T16:18:54.604Z,99691.47
2023-04-15T16:21:57.275Z,99690.53
2023-04-15T16:25:00.497Z,99695.06
2023-04-15T16:28:11.494Z,99698.94
2023-04-15T16:31:21.171Z,99691.62
2023-04-15T16:34:23.693Z,99696.59
2023-04-15T16:37:26.156Z,99694.75
2023-04-15T16:40:28.672Z,99695.28
2023-04-15T16:43:31.019Z,99695.72
2023-04-15T16:46:33.667Z,99695.03
2023-04-15T16:49:36.171Z,99697.63
2023-04-15T16:52:38.727Z,99708.38
2023-04-15T16:55:41.105Z,99712.19
2023-04-15T16:58:43.692Z,99714.22
2023-04-15T17:01:46.366Z,99723.31
2023-04-15T17:04:48.963Z,99739.06
2023-04-15T17:07:51.290Z,99733.09
2023-04-15T17:10:55.158Z,99736.13
2023-04-15T17:13:57.406Z,99743.47
2023-04-15T17:16:59.872Z,99747.47
2023-04-15T17:20:02.153Z,99748.19
2023-04-15T17:23:04.896Z,99751.25
2023-04-15T17:26:07.148Z,99759.19
2023-04-15T17:29:09.660Z,99761.25
2023-04-15T17:32:12.006Z,99767.53
2023-04-15T17:35:14.609Z,99777.97
2023-04-15T17:38:16.849Z,99776.69
2023-04-15T17:41:19.538Z,99778.72
2023-04-15T17:44:23.520Z,99771.97
2023-04-15T17:47:27.828Z,99778.56
2023-04-15T17:50:30.155Z,99771.81
2023-04-15T17:53:32.897Z,99789.38
2023-04-15T17:56:35.114Z,99794.81
2023-04-15T17:59:37.975Z,99793.19
2023-04-15T18:02:41.338Z,99793.72
2023-04-15T18:05:44.364Z,99799.19
2023-04-15T18:08:47.037Z,99808.03
2023-04-15T18:11:49.655Z,99806.91
2023-04-15T18:14:53.209Z,99806.56
2023-04-15T18:17:55.864Z,99807.72
2023-04-15T18:20:58.616Z,99806.38
2023-04-15T18:24:01.233Z,99813.00
2023-04-15T18:27:03.859Z,99816.63
2023-04-15T18:30:10.304Z,99823.41
2023-04-15T18:33:12.727Z,99829.03
2023-04-15T18:36:15.264Z,99838.78
2023-04-15T18:39:17.497Z,99844.38
2023-04-15T18:42:20.974Z,99848.31
2023-04-15T18:45:23.341Z,99856.75
2023-04-15T18:48:26.926Z,99862.66
2023-04-15T18:51:29.639Z,99875.22
2023-04-15T18:54:32.294Z,99874.22
2023-04-15T18:57:35.857Z,99879.84
2023-04-15T19:00:41.691Z,99882.13
2023-04-15T19:03:44.335Z,99888.25
2023-04-15T19:06:47.450Z,99890.53
2023-04-15T19:09:50.014Z,99895.63
2023-04-15T19:12:52.591Z,99899.72
2023-04-15T19:15:54.926Z,99902.00
2023-04-15T19:18:57.612Z,99909.59
2023-04-15T19:22:01.701Z,99919.31
2023-04-15T19:25:05.391Z,99922.28
2023-04-15T19:28:07.678Z,99933.16
2023-04-15T19:31:10.280Z,99924.91
2023-04-15T19:34:12.753Z,99924.09
2023-04-15T19:37:15.995Z,99923.09
2023-04-15T19:40:18.395Z,99931.53
2023-04-15T19:43:21.002Z,99936.50
2023-04-15T19:46:23.669Z,99933.53
2023-04-15T19:49:26.940Z,99939.31
2023-04-15T19:52:29.335Z,99950.72
2023-04-15T19:55:31.965Z,99941.81
2023-04-15T19:58:34.440Z,99945.13
2023-04-15T20:01:37.186Z,99952.03
2023-04-15T20:04:39.807Z,99947.94
2023-04-15T20:07:43.072Z,99951.25
2023-04-15T20:10:45.658Z,99959.81
2023-04-15T20:13:47.962Z,99964.81
2023-04-15T20:16:50.542Z,99965.16
2023-04-15T20:19:52.960Z,99967.47
2023-04-15T20:22:55.667Z,99966.34
2023-04-15T20:25:57.943Z,99964.69
2023-04-15T20:29:00.763Z,99962.37
2023-04-15T20:32:03.435Z,99960.56
2023-04-15T20:35:06.928Z,99967.47
2023-04-15T20:38:09.340Z,99970.19
2023-04-15T20:41:12.026Z,99970.16
2023-04-15T20:44:14.538Z,99971.50
2023-04-15T20:47:17.309Z,99973.84
2023-04-15T20:50:19.707Z,99982.75
2023-04-15T20:53:22.481Z,99983.03
2023-04-15T20:56:27.334Z,99978.25
2023-04-15T20:59:32.044Z,99981.03
2023-04-15T21:02:34.530Z,99986.53
2023-04-15T21:05:37.198Z,99987.34
2023-04-15T21:08:39.580Z,100000.22
2023-04-15T21:11:59.845Z,99999.72
2023-04-15T21:15:03.871Z,100009.44
2023-04-15T21:18:06.390Z,100006.06
2023-04-15T21:21:08.787Z,100007.00
2023-04-15T21:24:11.465Z,100006.19
2023-04-15T21:27:13.707Z,100017.75
2023-04-15T21:30:16.405Z,100019.22
2023-04-15T21:33:20.385Z,100023.75
2023-04-15T21:36:22.884Z,100025.06
2023-04-15T21:39:30.138Z,100022.53
2023-04-15T21:42:32.701Z,100029.97
2023-04-15T21:45:35.324Z,100033.72
2023-04-15T21:48:38.050Z,100027.91
2023-04-15T21:51:40.669Z,100033.44
2023-04-15T21:54:43.205Z,100038.84
2023-04-15T21:57:45.428Z,100033.19
2023-04-15T22:00:48.139Z,100039.84
2023-04-15T22:03:51.164Z,100054.22
2023-04-15T22:06:55.747Z,100043.84
2023-04-15T22:09:58.359Z,100048.06
2023-04-15T22:13:03.036Z,100053.66
2023-04-15T22:16:05.911Z,100049.34
2023-04-15T22:19:09.770Z,100065.50
2023-04-15T22:22:12.481Z,100062.75
2023-04-15T22:25:14.773Z,100059.66
2023-04-15T22:28:17.309Z,100058.47
2023-04-15T22:31:19.749Z,100062.53
2023-04-15T22:34:22.675Z,100062.69
2023-04-15T22:37:25.116Z,100062.75
2023-04-15T22:40:28.518Z,100063.75
2023-04-15T22:43:31.099Z,100063.75
2023-04-15T22:46:33.857Z,100066.50
2023-04-15T22:49:36.613Z,100069.75
2023-04-15T22:52:40.638Z,100067.13
2023-04-15T22:55:51.203Z,100064.66
2023-04-15T22:58:53.746Z,100069.28
2023-04-15T23:01:57.920Z,100073.41
2023-04-15T23:05:02.176Z,100074.50
2023-04-15T23:08:14.689Z,100071.41
2023-04-15T23:11:18.452Z,100070.22
2023-04-15T23:14:20.969Z,100072.06
2023-04-15T23:17:23.727Z,100071.31
2023-04-15T23:20:26.061Z,100079.34
2023-04-15T23:23:28.661Z,100075.06
2023-04-15T23:26:31.158Z,100069.72
2023-04-15T23:29:33.685Z,100067.91
2023-04-15T23:32:36.471Z,100073.84
2023-04-15T23:35:39.450Z,100075.50
2023-04-15T23:38:41.994Z,100075.66
2023-04-15T23:41:44.644Z,100076.84
2023-04-15T23:44:47.085Z,100082.13
2023-04-15T23:47:49.608Z,100091.47
2023-04-15T23:50:51.843Z,100089.28
2023-04-15T23:53:54.493Z,100091.25
2023-04-15T23:56:56.861Z,100095.69
